Quimili, Argentina
Current Conditions -  °F | °C
As of 10:00 AM on Thursday 23 Oct 2014 (Local Time) from SANT Reporting Station
Clear Clear  
Wind Chill: 29°   Ceiling: Unl
Heat Index: 30°   Visibility: 5mi
Dew Point: 18°   Wind: 3mph
Humidity: 51%   Direction: 180°S
Pressure: 29.97"   Gusts: NA
Location:  27.63°S, 62.42°W
Report Text: SANT 231300Z 18003KT 8000 NSC 29/18 Q1015
Loading
Personal Weather Stations






























Interactive Weather Map
Tropical Storm Tracking
New forecast layout! Learn more

10-Day Weather Forecast

Advertisements
Track Severe Weather on mobile